地図

経路データ

SID SEASON NUMBER BASIN SUBBASIN NAME ISO_TIME NATURE LAT LON WMO_WIND WMO_PRES WMO_AGENCY TRACK_TYPE DIST2LAND LANDFALL IFLAG USA_AGENCY USA_ATCF_ID USA_LAT USA_LON USA_RECORD USA_STATUS USA_WIND USA_PRES USA_SSHS USA_R34_NE USA_R34_SE USA_R34_SW USA_R34_NW USA_R50_NE USA_R50_SE USA_R50_SW USA_R50_NW USA_R64_NE USA_R64_SE USA_R64_SW USA_R64_NW USA_POCI USA_ROCI USA_RMW USA_EYE TOKYO_LAT TOKYO_LON TOKYO_GRADE TOKYO_WIND TOKYO_PRES TOKYO_R50_DIR TOKYO_R50_LONG TOKYO_R50_SHORT TOKYO_R30_DIR TOKYO_R30_LONG TOKYO_R30_SHORT TOKYO_LAND CMA_LAT CMA_LON CMA_CAT CMA_WIND CMA_PRES HKO_LAT HKO_LON HKO_CAT HKO_WIND HKO_PRES NEWDELHI_LAT NEWDELHI_LON NEWDELHI_GRADE NEWDELHI_WIND NEWDELHI_PRES NEWDELHI_CI NEWDELHI_DP NEWDELHI_POCI REUNION_LAT REUNION_LON REUNION_TYPE REUNION_WIND REUNION_PRES REUNION_TNUM REUNION_CI REUNION_RMW REUNION_R34_NE REUNION_R34_SE REUNION_R34_SW REUNION_R34_NW REUNION_R50_NE REUNION_R50_SE REUNION_R50_SW REUNION_R50_NW REUNION_R64_NE REUNION_R64_SE REUNION_R64_SW REUNION_R64_NW BOM_LAT BOM_LON BOM_TYPE BOM_WIND BOM_PRES BOM_TNUM BOM_CI BOM_RMW BOM_R34_NE BOM_R34_SE BOM_R34_SW BOM_R34_NW BOM_R50_NE BOM_R50_SE BOM_R50_SW BOM_R50_NW BOM_R64_NE BOM_R64_SE BOM_R64_SW BOM_R64_NW BOM_ROCI BOM_POCI BOM_EYE BOM_POS_METHOD BOM_PRES_METHOD NADI_LAT NADI_LON NADI_CAT NADI_WIND NADI_PRES WELLINGTON_LAT WELLINGTON_LON WELLINGTON_WIND WELLINGTON_PRES DS824_LAT DS824_LON DS824_STAGE DS824_WIND DS824_PRES TD9636_LAT TD9636_LON TD9636_STAGE TD9636_WIND TD9636_PRES TD9635_LAT TD9635_LON TD9635_WIND TD9635_PRES TD9635_ROCI NEUMANN_LAT NEUMANN_LON NEUMANN_CLASS NEUMANN_WIND NEUMANN_PRES MLC_LAT MLC_LON MLC_CLASS MLC_WIND MLC_PRES USA_GUST BOM_GUST BOM_GUST_PER REUNION_GUST REUNION_GUST_PER USA_SEAHGT USA_SEARAD_NE USA_SEARAD_SE USA_SEARAD_SW USA_SEARAD_NW STORM_SPEED STORM_DIR
2003359S15177 2004 107 SP MM HETA 2003-12-25 06:00:00 NR -15.0000 176.500 15 1004 nadi main 286 255 ________O_____ -1 -15.0000 176.500 -1 15 1004 -15.0000 176.500 15 1004 6 101
2003359S15177 2004 107 SP MM HETA 2003-12-25 09:00:00 NR -15.0600 176.830 main 255 226 _______IP_____ -1 -15.0600 176.830 -1 15 1004 -15.0600 176.830 15 1004 7 98
2003359S15177 2004 107 SP MM HETA 2003-12-25 12:00:00 NR -15.1000 177.200 15 1004 nadi main 226 203 ________O_____ -1 -15.1000 177.200 -1 15 1004 -15.1000 177.200 15 1004 8 94
2003359S15177 2004 107 SP MM HETA 2003-12-25 15:00:00 NR -15.1076 177.623 main 203 186 _______IP_____ -1 -15.1076 177.623 -1 15 1004 -15.1076 177.623 15 1004 8 90
2003359S15177 2004 107 SP MM HETA 2003-12-25 18:00:00 NR -15.1000 178.000 15 1004 nadi main 186 178 ________O_____ -1 -15.1000 178.000 -1 15 1004 -15.1000 178.000 15 1004 6 89
2003359S15177 2004 107 SP MM HETA 2003-12-25 21:00:00 NR -15.0924 178.245 main 178 169 _______IP_____ -1 -15.0924 178.245 -1 15 1004 -15.0924 178.245 15 1004 4 90
2003359S15177 2004 107 SP MM HETA 2003-12-26 00:00:00 NR -15.1000 178.400 15 1004 nadi main 169 165 ________O_____ -1 -15.1000 178.400 -1 15 1004 -15.1000 178.400 15 1004 3 102
2003359S15177 2004 107 SP MM HETA 2003-12-26 03:00:00 NR -15.1500 178.522 main 165 151 _______IP_____ -1 -15.1500 178.522 -1 15 1004 -15.1500 178.522 15 1004 2 117
2003359S15177 2004 107 SP MM HETA 2003-12-26 06:00:00 NR -15.2000 178.600 15 1004 nadi main 151 151 ________O_____ -1 -15.2000 178.600 -1 15 1004 -15.2000 178.600 15 1004 1 116
2003359S15177 2004 107 SP MM HETA 2003-12-26 09:00:00 NR -15.2075 178.643 main 151 149 _______IP_____ -1 -15.2075 178.643 -1 15 1004 -15.2075 178.643 15 1004 1 90
2003359S15177 2004 107 SP MM HETA 2003-12-26 12:00:00 NR -15.2000 178.700 15 1004 nadi main 149 144 ________O_____ -1 -15.2000 178.700 -1 15 1004 -15.2000 178.700 15 1004 2 88
2003359S15177 2004 107 SP MM HETA 2003-12-26 15:00:00 NR -15.2000 178.842 main 144 134 _______IP_____ -1 -15.2000 178.842 -1 15 1004 -15.2000 178.842 15 1004 3 90
2003359S15177 2004 107 SP MM HETA 2003-12-26 18:00:00 NR -15.2000 179.000 15 1004 nadi main 134 130 ________O_____ -1 -15.2000 179.000 -1 15 1004 -15.2000 179.000 15 1004 3 93
2003359S15177 2004 107 SP MM HETA 2003-12-26 21:00:00 NR -15.2150 179.107 main 130 127 _______IP_____ -1 -15.2150 179.107 -1 15 1004 -15.2150 179.107 15 1004 2 90
2003359S15177 2004 107 SP MM HETA 2003-12-27 00:00:00 NR -15.2000 179.200 15 1004 nadi main 127 124 ________O_____ -1 -15.2000 179.200 -1 15 1004 -15.2000 179.200 15 1004 2 60
2003359S15177 2004 107 SP MM HETA 2003-12-27 03:00:00 NR -15.1075 179.300 main 134 130 _______IP_____ -1 -15.1075 179.300 -1 15 1004 -15.1075 179.300 15 1004 3 44
2003359S15177 2004 107 SP MM HETA 2003-12-27 06:00:00 NR -15.0000 179.400 15 1004 nadi main 140 138 ________O_____ -1 -15.0000 179.400 -1 15 1004 -15.0000 179.400 15 1004 3 48
2003359S15177 2004 107 SP MM HETA 2003-12-27 09:00:00 NR -14.9350 179.500 main 149 147 _______IP_____ -1 -14.9350 179.500 -1 15 1004 -14.9350 179.500 15 1004 2 63
2003359S15177 2004 107 SP MM HETA 2003-12-27 12:00:00 NR -14.9000 179.600 15 1004 nadi main 147 145 ________O_____ -1 -14.9000 179.600 -1 15 1004 -14.9000 179.600 15 1004 2 80
2003359S15177 2004 107 SP MM HETA 2003-12-27 15:00:00 NR -14.9000 179.700 main 145 145 _______IP_____ -1 -14.9000 179.700 -1 17 1003 -14.9000 179.700 17 1003 2 90
2003359S15177 2004 107 SP MM HETA 2003-12-27 18:00:00 NR -14.9000 179.800 20 1002 nadi main 145 145 ________O_____ -1 -14.9000 179.800 -1 20 1002 -14.9000 179.800 20 1002 2 76
2003359S15177 2004 107 SP MM HETA 2003-12-27 21:00:00 NR -14.8500 179.900 main 156 156 _______IP_____ -1 -14.8500 179.900 -1 20 1002 -14.8500 179.900 20 1002 2 63
2003359S15177 2004 107 SP MM HETA 2003-12-28 00:00:00 NR -14.8000 180.000 20 1002 nadi main 157 157 ________O_____ -1 -14.8000 -180.000 -1 20 1002 -14.8000 180.000 20 1002 2 76
2003359S15177 2004 107 SP MM HETA 2003-12-28 03:00:00 NR -14.8000 180.107 main 158 158 _______IP_____ -1 -14.8000 -179.893 -1 20 1002 -14.8000 -179.893 20 1002 2 90
2003359S15177 2004 107 SP MM HETA 2003-12-28 06:00:00 NR -14.8000 180.200 20 1002 nadi main 159 159 ________O_____ -1 -14.8000 -179.800 -1 20 1002 -14.8000 -179.800 20 1002 2 73
2003359S15177 2004 107 SP MM HETA 2003-12-28 09:00:00 NR -14.7575 180.257 main 162 162 _______IP_____ -1 -14.7575 -179.743 -1 20 1002 -14.7575 -179.743 20 1002 1 43
2003359S15177 2004 107 SP MM HETA 2003-12-28 12:00:00 NR -14.7000 180.300 20 1002 nadi main 173 173 ________O_____ -1 -14.7000 -179.700 -1 20 1002 -14.7000 -179.700 20 1002 1 36
2003359S15177 2004 107 SP MM HETA 2003-12-28 15:00:00 NR -14.6425 180.350 main 184 184 _______IP_____ -1 -14.6425 -179.650 -1 20 1002 -14.6425 -179.650 20 1002 1 43
2003359S15177 2004 107 SP MM HETA 2003-12-28 18:00:00 NR -14.6000 180.400 20 1002 nadi main 186 186 ________O_____ -1 -14.6000 -179.600 -1 20 1002 -14.6000 -179.600 20 1002 1 64
2003359S15177 2004 107 SP MM HETA 2003-12-28 21:00:00 NR -14.6000 180.442 main 186 186 _______IP_____ -1 -14.6000 -179.558 -1 20 1002 -14.6000 -179.558 20 1002 1 90
2003359S15177 2004 107 SP MM HETA 2003-12-29 00:00:00 NR -14.6000 180.500 20 1002 nadi main 190 190 ________O_____ -1 -14.6000 -179.500 -1 20 1002 -14.6000 -179.500 20 1002 2 73
2003359S15177 2004 107 SP MM HETA 2003-12-29 03:00:00 NR -14.5575 180.592 main 194 194 _______IP_____ -1 -14.5575 -179.408 -1 20 1002 -14.5575 -179.408 20 1002 2 63
2003359S15177 2004 107 SP MM HETA 2003-12-29 06:00:00 NR -14.5000 180.700 20 1002 nadi main 208 208 ________O_____ -1 -14.5000 -179.300 -1 20 1002 -14.5000 -179.300 20 1002 2 63
2003359S15177 2004 107 SP MM HETA 2003-12-29 09:00:00 NR -14.4500 180.807 main 213 213 _______IP_____ -1 -14.4500 -179.193 -1 20 1002 -14.4500 -179.193 20 1002 1 0
2003359S15177 2004 107 SP MM HETA 2003-12-29 12:00:00 TS -14.3800 180.720 20 1002 nadi main 219 219 O_______O___O_ jtwc_sh SH072004 -14.3000 -180.000 DB 20 1004 -3 -14.4000 -179.100 -1 20 1002 -14.4000 -179.100 20 1002 -14.3000 180.000 TC 20 3 328
2003359S15177 2004 107 SP MM HETA 2003-12-29 15:00:00 TS -14.2124 180.652 main 239 236 P______IP___P_ SH072004 -13.9225 -179.882 DB 20 1004 -3 -14.3574 -179.080 -1 20 1002 -14.3574 -179.080 20 1002 -13.9225 -179.882 TC 20 4 0
2003359S15177 2004 107 SP MM HETA 2003-12-29 18:00:00 TS -14.0000 180.700 20 1002 nadi main 260 260 O_______O___O_ jtwc_sh SH072004 -13.6000 -179.700 DB 20 1004 -3 -14.3000 -179.000 -1 20 1002 -14.3000 -179.000 20 1002 -13.6000 -179.700 TC 20 5 33
2003359S15177 2004 107 SP MM HETA 2003-12-29 21:00:00 TS -13.7926 180.935 main 289 289 P______IP___P_ SH072004 -13.3701 -179.415 DB 22 1006 -3 -14.2151 -178.715 -1 22 1001 -14.2151 -178.715 22 1001 -13.3701 -179.415 TC 22 6 57
2003359S15177 2004 107 SP MM HETA 2003-12-30 00:00:00 TS -13.6500 181.250 25 1000 nadi main 327 312 O_______O___O_ jtwc_sh SH072004 -13.2000 -179.100 TD 25 1009 -1 -14.1000 -178.400 -1 25 1000 -14.1000 -178.400 25 1000 -13.2000 -179.100 TC 25 6 60
2003359S15177 2004 107 SP MM HETA 2003-12-30 03:00:00 TS -13.4924 181.465 main 347 347 P______IP___P_ SH072004 -13.0350 -178.843 TD 25 1005 -1 -13.9499 -178.228 -1 25 1000 -13.9499 -178.228 25 1000 -13.0350 -178.843 TC 25 5 52
2003359S15177 2004 107 SP MM HETA 2003-12-30 06:00:00 TS -13.3500 181.650 25 1000 nadi main 372 362 O_______O___O_ jtwc_sh SH072004 -12.9000 -178.600 TD 25 1002 -1 -13.8000 -178.100 -1 25 1000 -13.8000 -178.100 25 1000 -12.9000 -178.600 TC 25 5 56
2003359S15177 2004 107 SP MM HETA 2003-12-30 09:00:00 TS -13.2387 181.854 main 398 398 P______IP___P_ SH072004 -12.7850 -178.343 TD 25 1002 -1 -13.6925 -177.950 -1 25 1000 -13.6925 -177.950 25 1000 -12.7850 -178.343 TC 25 4 63
2003359S15177 2004 107 SP MM HETA 2003-12-30 12:00:00 TS -13.1500 182.050 25 1000 nadi main 414 404 O_______O___O_ jtwc_sh SH072004 -12.7000 -178.100 TD 25 1002 -1 -13.6000 -177.800 -1 25 1000 -13.6000 -177.800 25 1000 -12.7000 -178.100 TC 25 4 66
2003359S15177 2004 107 SP MM HETA 2003-12-30 15:00:00 TS -13.0712 182.232 main 426 426 P______IP___P_ SH072004 -12.6350 -177.885 TD 27 1001 -1 -13.5075 -177.650 -1 27 999 -13.5075 -177.650 27 999 -12.6350 -177.885 TC 27 4 66
2003359S15177 2004 107 SP MM HETA 2003-12-30 18:00:00 TS -13.0000 182.400 30 998 nadi main 448 448 O_______O___O_ jtwc_sh SH072004 -12.6000 -177.700 TD 30 1000 -1 1008 120 45 -13.4000 -177.500 -1 30 998 -13.4000 -177.500 30 998 -12.6000 -177.700 TC 30 3 65
2003359S15177 2004 107 SP MM HETA 2003-12-30 21:00:00 TS -12.9250 182.550 main 463 463 P______IP___P_ SH072004 -12.5850 -177.542 TD 30 1000 -1 1008 120 45 -13.2650 -177.358 -1 30 998 -13.2650 -177.358 30 998 -12.5850 -177.542 TC 30 3 63
2003359S15177 2004 107 SP MM HETA 2003-12-31 00:00:00 TS -12.8500 182.700 30 998 nadi main 485 472 O_______O___O_ jtwc_sh SH072004 -12.6000 -177.400 TD 30 1000 -1 1008 120 45 -13.1000 -177.200 -1 30 998 -13.1000 -177.200 30 998 -12.6000 -177.400 TC 30 3 68
2003359S15177 2004 107 SP MM HETA 2003-12-31 03:00:00 TS -12.8012 182.860 main 472 461 P______IP___P_ SH072004 -12.6800 -177.265 TD 30 1000 -1 1008 120 45 -12.9225 -177.015 -1 30 997 -12.9225 -177.015 30 997 -12.6800 -177.265 TC 30 4 66
2003359S15177 2004 107 SP MM HETA 2003-12-31 06:00:00 TS -12.7000 183.050 30 997 nadi main 463 437 O_______O___O_ jtwc_sh SH072004 -12.7000 -177.100 TD 30 1000 -1 1008 120 45 -12.7000 -176.800 -1 30 997 -12.7000 -176.800 30 997 -12.7000 -177.100 TC 30 5 54
2003359S15177 2004 107 SP MM HETA 2003-12-31 09:00:00 TS -12.4913 183.293 main 437 423 P______IP___P_ SH072004 -12.5600 -176.865 TD 30 1000 -1 1008 120 45 -12.4225 -176.550 -1 30 997 -12.4225 -176.550 30 997 -12.5600 -176.865 TC 30 7 44
2003359S15177 2004 107 SP MM HETA 2003-12-31 12:00:00 TS -12.2000 183.550 30 997 nadi main 426 410 O_______O___O_ jtwc_sh SH072004 -12.3000 -176.600 TD 30 1000 -1 1008 120 45 -12.1000 -176.300 -1 30 997 -12.1000 -176.300 30 997 -12.3000 -176.600 TC 30 8 39
2003359S15177 2004 107 SP MM HETA 2003-12-31 15:00:00 TS -11.8875 183.790 main 410 405 P______IP___P_ SH072004 -12.0025 -176.335 TD 30 1000 -1 1008 120 45 -11.7725 -176.085 -1 30 997 -11.7725 -176.085 30 997 -12.0025 -176.335 TC 30 8 32
2003359S15177 2004 107 SP MM HETA 2003-12-31 18:00:00 TS -11.5000 184.000 30 997 nadi main 413 410 O_______O___O_ jtwc_sh SH072004 -11.6000 -176.100 TD 30 1000 -1 1008 120 45 -11.4000 -175.900 -1 30 997 -11.4000 -175.900 30 997 -11.6000 -176.100 TC 30 9 22
2003359S15177 2004 107 SP MM HETA 2003-12-31 21:00:00 TS -11.0337 184.146 main 438 429 P______IP___P_ SH072004 -11.0724 -175.943 TD 30 1000 -1 1008 120 45 -10.9949 -175.765 -1 30 997 -10.9949 -175.765 30 997 -11.0724 -175.943 TC 30 11 16
2003359S15177 2004 107 SP MM HETA 2004-01-01 00:00:00 TS -10.5000 184.300 30 997 nadi main 460 460 O_______O___O_ jtwc_sh SH072004 -10.5000 -175.800 TD 30 1000 -1 1008 120 45 -10.5000 -175.600 -1 30 997 -10.5000 -175.600 30 997 -10.5000 -175.800 TC 30 12 19
2003359S15177 2004 107 SP MM HETA 2004-01-01 03:00:00 TS -9.90251 184.535 main 499 499 P______IP___P_ SH072004 -9.98502 -175.600 TD 32 998 -1 1008 160 30 -9.82001 -175.330 -1 30 997 -9.82001 -175.330 30 997 -9.98502 -175.600 TC 32 13 23
2003359S15177 2004 107 SP MM HETA 2004-01-01 06:00:00 TS -9.35000 184.800 30 997 nadi main 538 528 O_______O___O_ jtwc_sh SH072004 -9.50000 -175.400 TC 35 997 0 1008 200 15 -9.20000 -175.000 -1 30 997 -9.20000 -175.000 30 997 -9.50000 -175.400 TC 35 11 29
2003359S15177 2004 107 SP MM HETA 2004-01-01 09:00:00 TS -8.94754 185.069 main 563 563 P______IP___P_ SH072004 -9.01249 -175.243 TC 35 997 0 -8.88258 -174.620 -1 30 996 -8.88258 -174.620 30 996 -9.01249 -175.243 TC 35 9 35
2003359S15177 2004 107 SP MM HETA 2004-01-01 12:00:00 TS -8.65000 185.300 30 996 nadi main 586 582 O_______O___O_ jtwc_sh SH072004 -8.60000 -175.100 TC 35 997 0 -8.70000 -174.300 -1 30 996 -8.70000 -174.300 30 996 -8.60000 -175.100 TC 35 7 34
2003359S15177 2004 107 SP MM HETA 2004-01-01 15:00:00 TS -8.38747 185.451 main 600 600 P______IP___P_ SH072004 -8.28999 -174.958 TC 35 997 0 -8.48495 -174.140 -1 30 996 -8.48495 -174.140 30 996 -8.28999 -174.958 TC 35 5 29
2003359S15177 2004 107 SP MM HETA 2004-01-01 18:00:00 TS -8.20000 185.550 30 996 nadi main 618 618 O_______O___O_ jtwc_sh SH072004 -8.10000 -174.800 TC 35 997 0 1002 120 50 -8.30000 -174.100 -1 30 996 -8.30000 -174.100 30 996 -8.10000 -174.800 TC 35 4 28
2003359S15177 2004 107 SP MM HETA 2004-01-01 21:00:00 TS -8.06251 185.629 main 629 629 P______IP___P_ SH072004 -8.01251 -174.600 TC 37 995 0 1002 120 50 -8.11250 -174.143 -1 32 995 -8.11250 -174.143 32 995 -8.01251 -174.600 TC 37 3 37
2003359S15177 2004 107 SP MM HETA 2004-01-02 00:00:00 TS -8.00000 185.700 35 995 nadi main 637 634 O_______O___O_ jtwc_sh SH072004 -8.00000 -174.400 TC 40 994 0 80 80 80 80 1002 120 50 -8.00000 -174.200 -1 35 995 -8.00000 -174.200 35 995 -8.00000 -174.400 TC 40 2 69
2003359S15177 2004 107 SP MM HETA 2004-01-02 03:00:00 TS -7.99875 185.800 main 634 632 P______IP___P_ SH072004 -7.97749 -174.235 TC 42 992 0 85 85 85 85 1002 127 35 -8.02000 -174.165 -1 40 991 -8.02000 -174.165 40 991 -7.97749 -174.235 TC 42 2 104
2003359S15177 2004 107 SP MM HETA 2004-01-02 06:00:00 TS -8.05000 185.900 45 987 nadi main 632 618 O_______O___O_ jtwc_sh SH072004 -8.00000 -174.100 TS 45 991 0 90 90 90 90 1002 135 20 -8.10000 -174.100 -1 45 987 -8.10000 -174.100 45 987 -8.00000 -174.100 TC 45 2 121
2003359S15177 2004 107 SP MM HETA 2004-01-02 09:00:00 TS -8.10625 185.982 main 618 607 P______IP___P_ SH072004 -8.07000 -173.985 TS 47 989 0 90 90 90 90 1002 167 20 -8.14250 -174.050 -1 47 986 -8.14250 -174.050 47 986 -8.07000 -173.985 TC 47 2 136
2003359S15177 2004 107 SP MM HETA 2004-01-02 12:00:00 TS -8.20000 186.050 50 985 nadi main 607 594 O_______O___O_ jtwc_sh SH072004 -8.20000 -173.900 TS 50 987 0 90 90 90 90 1002 200 20 -8.20000 -174.000 -1 50 985 -8.20000 -174.000 50 985 -8.20000 -173.900 TC 50 2 148
2003359S15177 2004 107 SP MM HETA 2004-01-02 15:00:00 TS -8.30500 186.111 main 594 572 P______IP___P_ SH072004 -8.37000 -173.835 TS 52 985 0 125 110 110 125 1002 190 25 -8.24000 -173.943 -1 52 982 -8.24000 -173.943 52 982 -8.37000 -173.835 TC 52 3 163
2003359S15177 2004 107 SP MM HETA 2004-01-02 18:00:00 TS -8.50000 186.150 55 980 nadi main 570 537 O_______O___O_ jtwc_sh SH072004 -8.60000 -173.800 TC 55 984 0 160 130 130 160 1002 180 30 -8.40000 -173.900 -1 55 980 -8.40000 -173.900 55 980 -8.60000 -173.800 TC 55 6 175
2003359S15177 2004 107 SP MM HETA 2004-01-02 21:00:00 TS -8.86000 186.158 main 526 493 P______IP___P_ SH072004 -8.88500 -173.785 TC 57 987 0 160 130 130 160 1002 180 30 -8.83500 -173.900 -1 57 977 -8.83500 -173.900 57 977 -8.88500 -173.785 TC 57 8 0
2003359S15177 2004 107 SP MM HETA 2004-01-03 00:00:00 TS -9.25000 186.150 60 975 nadi main 493 461 O_______O___O_ jtwc_sh SH072004 -9.20000 -173.800 TC 60 990 0 160 130 130 160 1002 180 30 -9.30000 -173.900 -1 60 975 -9.30000 -173.900 60 975 -9.20000 -173.800 TC 60 6 178
2003359S15177 2004 107 SP MM HETA 2004-01-03 03:00:00 TS -9.49999 186.169 main 461 439 P______IP___P_ SH072004 -9.49250 -173.842 TC 62 983 0 160 130 130 160 1002 175 30 -9.50749 -173.820 -1 60 975 -9.50749 -173.820 60 975 -9.49250 -173.842 TC 62 5 182
2003359S15177 2004 107 SP MM HETA 2004-01-03 06:00:00 TS -9.75000 186.150 60 975 nadi main 442 399 O_______O___O_ jtwc_sh SH072004 -9.80000 -173.900 TC 65 976 1 160 130 130 160 1002 170 30 -9.70000 -173.800 -1 60 975 -9.70000 -173.800 60 975 -9.80000 -173.900 TC 65 7 189
2003359S15177 2004 107 SP MM HETA 2004-01-03 09:00:00 TS -10.1550 186.063 main 388 364 P______IP___P_ SH072004 -10.1875 -173.913 TC 65 976 1 160 130 130 160 1002 170 30 -10.1225 -173.962 -1 60 975 -10.1225 -173.962 60 975 -10.1875 -173.913 TC 65 8 198
2003359S15177 2004 107 SP MM HETA 2004-01-03 12:00:00 TS -10.5000 185.900 60 975 nadi main 364 358 O_______O___O_ jtwc_sh SH072004 -10.5000 -174.000 TC 65 976 1 160 130 130 160 1002 170 30 -10.5000 -174.200 -1 60 975 -10.5000 -174.200 60 975 -10.5000 -174.000 TC 65 6 224
2003359S15177 2004 107 SP MM HETA 2004-01-03 15:00:00 TS -10.5763 185.646 main 368 368 P______IP___P_ SH072004 -10.5576 -174.293 TC 70 971 1 165 135 135 165 1001 175 25 -10.5950 -174.415 -1 65 970 -10.5950 -174.415 65 970 -10.5576 -174.293 TC 70 5 258
2003359S15177 2004 107 SP MM HETA 2004-01-03 18:00:00 TS -10.6000 185.400 70 965 nadi main 379 372 O_______O___O_ jtwc_sh SH072004 -10.6000 -174.600 TC 75 967 1 170 140 140 170 1001 180 20 -10.6000 -174.600 -1 70 965 -10.6000 -174.600 70 965 -10.6000 -174.600 TC 75 4 245
2003359S15177 2004 107 SP MM HETA 2004-01-03 21:00:00 TS -10.7625 185.240 main 372 354 P______IP___P_ SH072004 -10.8699 -174.767 TC 75 967 1 170 140 140 170 1001 180 20 -10.6550 -174.752 -1 72 962 -10.6550 -174.752 72 962 -10.8699 -174.767 TC 75 4 206
2003359S15177 2004 107 SP MM HETA 2004-01-04 00:00:00 TS -11.0000 185.200 75 960 nadi main 354 321 O_______O___O_ jtwc_sh SH072004 -11.2000 -174.800 TC 75 967 1 170 140 140 170 1001 180 20 -10.8000 -174.800 -1 75 960 -10.8000 -174.800 75 960 -11.2000 -174.800 TC 75 5 172
2003359S15177 2004 107 SP MM HETA 2004-01-04 03:00:00 TS -11.2775 185.320 main 321 281 P______IP___P_ SH072004 -11.4500 -174.680 TC 80 970 1 170 140 140 170 999 190 20 -11.1050 -174.680 -1 77 957 -11.1050 -174.680 77 957 -11.4500 -174.680 TC 80 7 154
2003359S15177 2004 107 SP MM HETA 2004-01-04 06:00:00 TS -11.6000 185.500 80 955 nadi main 281 249 O_______O___O_ jtwc_sh SH072004 -11.7000 -174.500 TC 85 973 2 170 140 140 170 998 200 20 -11.5000 -174.500 -1 80 955 -11.5000 -174.500 80 955 -11.7000 -174.500 TC 85 7 156
2003359S15177 2004 107 SP MM HETA 2004-01-04 09:00:00 TS -11.9275 185.611 main 249 210 P______IP___P_ SH072004 -11.9700 -174.392 TC 95 955 2 195 150 150 195 997 210 15 -11.8850 -174.385 -1 85 947 -11.8850 -174.385 85 947 -11.9700 -174.392 TC 95 7 165
2003359S15177 2004 107 SP MM HETA 2004-01-04 12:00:00 TS -12.3000 185.700 90 940 nadi main 210 176 O_______O___O_ jtwc_sh SH072004 -12.3000 -174.300 TY 105 938 3 220 160 160 220 996 220 10 15 -12.3000 -174.300 -1 90 940 -12.3000 -174.300 90 940 -12.3000 -174.300 TC 105 8 169
2003359S15177 2004 107 SP MM HETA 2004-01-04 15:00:00 TS -12.7462 185.779 main 176 155 P______IP___P_ SH072004 -12.7350 -174.200 TY 115 937 4 220 170 170 220 995 220 10 -12.7575 -174.242 -1 95 932 -12.7575 -174.242 95 932 -12.7350 -174.200 TC 115 9 171
2003359S15177 2004 107 SP MM HETA 2004-01-04 18:00:00 TS -13.2000 185.850 100 925 nadi main 144 140 O_______O___O_ jtwc_sh SH072004 -13.2000 -174.100 TC 125 936 4 220 180 180 220 995 220 10 10 -13.2000 -174.200 -1 100 925 -13.2000 -174.200 100 925 -13.2000 -174.100 TC 125 9 172
2003359S15177 2004 107 SP MM HETA 2004-01-04 21:00:00 TS -13.5899 185.895 main 141 134 P______IP___P_ SH072004 -13.6224 -174.022 TC 132 928 4 220 180 180 220 995 220 10 -13.5574 -174.187 -1 107 920 -13.5574 -174.187 107 920 -13.6224 -174.022 TC 132 8 169
2003359S15177 2004 107 SP MM HETA 2004-01-05 00:00:00 TS -13.9500 186.000 115 915 nadi main 137 131 O_______O___O_ jtwc_sh SH072004 -14.0000 -173.900 TC 140 921 5 220 180 180 220 995 220 10 10 -13.9000 -174.100 -1 115 915 -13.9000 -174.100 115 915 -14.0000 -173.900 TC 140 8 154
2003359S15177 2004 107 SP MM HETA 2004-01-05 03:00:00 TS -14.2851 186.249 main 140 124 P______IP___P_ SH072004 -14.2850 -173.672 TC 140 909 5 220 180 180 220 995 220 10 -14.2851 -173.830 -1 115 915 -14.2851 -173.830 115 915 -14.2850 -173.672 TC 140 9 143
2003359S15177 2004 107 SP MM HETA 2004-01-05 06:00:00 TS -14.6500 186.550 115 915 nadi main 132 132 O_______O___O_ jtwc_sh SH072004 -14.6000 -173.400 TC 140 898 5 220 180 180 220 995 220 10 10 -14.7000 -173.500 -1 115 915 -14.7000 -173.500 115 915 -14.6000 -173.400 TC 140 10 148
2003359S15177 2004 107 SP MM HETA 2004-01-05 09:00:00 TS -15.0911 186.774 main 159 159 P______IP___P_ SH072004 -15.0548 -173.187 TC 140 898 5 220 180 180 220 995 220 15 -15.1274 -173.265 -1 115 915 -15.1274 -173.265 115 915 -15.0548 -173.187 TC 140 11 153
2003359S15177 2004 107 SP MM HETA 2004-01-05 12:00:00 TS -15.6000 187.050 115 915 nadi main 206 204 O_______O___O_ jtwc_sh SH072004 -15.6000 -172.900 TC 140 898 5 220 180 180 220 995 220 20 -15.6000 -173.000 -1 115 915 -15.6000 -173.000 115 915 -15.6000 -172.900 TC 140 12 148
2003359S15177 2004 107 SP MM HETA 2004-01-05 15:00:00 TS -16.1412 187.455 main 257 257 P______IP___P_ SH072004 -16.1701 -172.445 TC 135 914 4 215 175 175 215 995 267 15 -16.1124 -172.645 -1 115 915 -16.1124 -172.645 115 915 -16.1701 -172.445 TC 135 14 143
2003359S15177 2004 107 SP MM HETA 2004-01-05 18:00:00 TS -16.7500 187.950 115 915 nadi main 325 325 O_______O___O_ jtwc_sh SH072004 -16.8000 -171.900 TC 130 931 4 210 170 170 210 995 315 10 15 -16.7000 -172.200 -1 115 915 -16.7000 -172.200 115 915 -16.8000 -171.900 TC 130 16 142
2003359S15177 2004 107 SP MM HETA 2004-01-05 21:00:00 TS -17.4125 188.482 main 409 409 P______IP___P_ SH072004 -17.4699 -171.357 TC 130 931 4 210 170 170 210 996 282 17 -17.3550 -171.680 -1 115 915 -17.3550 -171.680 115 915 -17.4699 -171.357 TC 130 18 143
2003359S15177 2004 107 SP MM HETA 2004-01-06 00:00:00 TS -18.1500 189.050 115 915 nadi main 500 508 O_______O___O_ jtwc_sh SH072004 -18.2000 -170.800 TC 130 931 4 210 170 170 210 998 250 25 15 -18.1000 -171.100 -1 115 915 -18.1000 -171.100 115 915 -18.2000 -170.800 TC 130 19 145
2003359S15177 2004 107 SP MM HETA 2004-01-06 03:00:00 TS -18.9597 189.607 main 612 612 P______IP___P_ SH072004 -18.9922 -170.264 TC 125 926 4 210 190 170 210 998 225 17 -18.9272 -170.522 -1 112 917 -18.9272 -170.522 112 917 -18.9922 -170.264 TC 125 20 147
2003359S15177 2004 107 SP MM HETA 2004-01-06 06:00:00 TS -19.8000 190.200 110 920 nadi main 718 718 O_______O___O_ jtwc_sh SH072004 -19.8000 -169.700 TY 120 922 4 210 210 170 210 998 200 10 10 -19.8000 -169.900 -1 110 920 -19.8000 -169.900 110 920 -19.8000 -169.700 TC 120 20 145
2003359S15177 2004 107 SP MM HETA 2004-01-06 09:00:00 TS -20.6149 190.860 main 829 829 P______IP___P_ SH072004 -20.5499 -169.064 TY 117 924 4 210 210 170 210 998 200 12 -20.6799 -169.215 -1 105 922 -20.6799 -169.215 105 922 -20.5499 -169.064 TC 117 20 142
2003359S15177 2004 107 SP MM HETA 2004-01-06 12:00:00 TS -21.4000 191.550 100 925 nadi main 936 936 O_______O___O_ jtwc_sh SH072004 -21.3000 -168.400 TY 115 927 4 210 210 170 210 998 200 15 -21.5000 -168.500 -1 100 925 -21.5000 -168.500 100 925 -21.3000 -168.400 TC 115 20 140
2003359S15177 2004 107 SP MM HETA 2004-01-06 15:00:00 TS -22.1282 192.208 main 1038 1038 P______IP___P_ SH072004 -22.0994 -167.779 TY 110 932 3 205 205 165 205 998 200 17 -22.1571 -167.806 -1 97 927 -22.1571 -167.806 97 927 -22.0994 -167.779 TC 110 19 139
2003359S15177 2004 107 SP MM HETA 2004-01-06 18:00:00 TS -22.8500 192.900 95 930 nadi main 1141 1141 O_______O___O_ jtwc_sh SH072004 -22.9000 -167.100 TY 105 938 3 200 200 160 200 998 200 20 -22.8000 -167.100 -1 95 930 -22.8000 -167.100 95 930 -22.9000 -167.100 TC 105 20 137
2003359S15177 2004 107 SP MM HETA 2004-01-06 21:00:00 TS -23.6214 193.704 main 1259 1259 P______IP___P_ SH072004 -23.6353 -166.257 TY 100 952 3 200 200 160 200 998 200 20 -23.6075 -166.335 -1 92 935 -23.6075 -166.335 92 935 -23.6353 -166.257 TC 100 21 137
2003359S15177 2004 107 SP MM HETA 2004-01-07 00:00:00 TS -24.4000 194.500 90 940 nadi main 1378 1378 O_______O___O_ jtwc_sh SH072004 -24.4000 -165.400 TC 95 966 2 200 200 160 200 998 200 20 -24.4000 -165.600 -1 90 940 -24.4000 -165.600 90 940 -24.4000 -165.400 TC 95 20 139
2003359S15177 2004 107 SP MM HETA 2004-01-07 03:00:00 TS -25.1567 195.163 main 1491 1491 P______IP___P_ SH072004 -25.2990 -164.699 TC 87 971 2 200 200 160 200 998 200 25 -25.0144 -164.976 -1 85 947 -25.0144 -164.976 85 947 -25.2990 -164.699 TC 87 19 142
2003359S15177 2004 107 SP MM HETA 2004-01-07 06:00:00 TS -25.9000 195.800 80 955 wellington main 1589 1589 O_______O___O_ jtwc_sh SH072004 -26.2000 -164.000 TC 80 976 1 200 200 160 200 998 200 30 -25.6000 -164.400 -1 80 955 -25.6000 -164.400 80 955 -26.2000 -164.000 TC 80 19 141
2003359S15177 2004 107 SP MM HETA 2004-01-07 09:00:00 TS -26.6359 196.503 main 1693 1693 P______IP___P_ SH072004 -26.9951 -163.157 TC 72 976 1 200 200 160 200 998 195 32 -26.2767 -163.836 -1 75 960 -26.2767 -163.836 75 960 -26.9951 -163.157 TC 72 20 138
2003359S15177 2004 107 SP MM HETA 2004-01-07 12:00:00 TS -27.3500 197.250 70 965 wellington main 1802 1797 O_______O___O_ jtwc_sh SH072004 -27.7000 -162.300 TY 65 976 1 200 200 160 200 998 190 35 -27.0000 -163.200 -1 70 965 -27.0000 -163.200 70 965 -27.7000 -162.300 TC 65 20 135
2003359S15177 2004 107 SP MM HETA 2004-01-07 15:00:00 TS -28.0214 198.066 main 1912 1912 P______IP___P_ SH072004 -28.3072 -161.504 TY 57 986 0 200 200 160 200 998 195 35 -27.7355 -162.365 -1 65 970 -27.7355 -162.365 65 970 -28.3072 -161.504 TC 57 20 134
2003359S15177 2004 107 SP MM HETA 2004-01-07 18:00:00 TS -28.7000 198.850 60 975 wellington main 2021 2021 O_______O___O_ jtwc_sh SH072004 -28.9000 -160.800 TC 50 997 0 200 200 160 200 998 200 35 -28.5000 -161.500 -1 60 975 -28.5000 -161.500 60 975 -28.9000 -160.800 TC 50 19 138
2003359S15177 2004 107 SP MM HETA 2004-01-07 21:00:00 TS -29.4496 199.524 main 2118 2118 P______IP___P_ SH072004 -29.5921 -160.197 TC 47 998 0 200 200 160 200 -29.3071 -160.754 -1 57 977 -29.3071 -160.754 57 977 -29.5921 -160.197 TC 47 19 144
2003359S15177 2004 107 SP MM HETA 2004-01-08 00:00:00 TS -30.2000 200.100 55 980 wellington main 2141 2139 O_______O___O_ jtwc_sh SH072004 -30.3000 -159.700 TC 45 1000 0 200 200 160 200 -30.1000 -160.100 -1 55 980 -30.1000 -160.100 55 980 -30.3000 -159.700 TC 45 18 147
2003359S15177 2004 107 SP MM HETA 2004-01-08 03:00:00 TS -30.9273 200.628 main 2147 2146 P______IP___P_ SH072004 -30.9872 -159.269 TC 37 1000 0 100 100 80 100 -30.8674 -159.475 -1 55 980 -30.8674 -159.475 55 980 -30.9872 -159.269 TC 37 16 149
2003359S15177 2004 107 SP MM HETA 2004-01-08 06:00:00 MX -31.5500 201.050 55 980 wellington main 2153 2152 O_______O___O_ jtwc_sh SH072004 -31.6000 -158.900 EX 30 1000 -4 1007 180 45 -31.5000 -159.000 -1 55 980 -31.5000 -159.000 55 980 -31.6000 -158.900 TC 30 13 149
2003359S15177 2004 107 SP MM HETA 2004-01-08 09:00:00 MX -32.0060 201.378 main 2164 2160 P______IP___P_ SH072004 -32.0949 -158.527 EX 30 1000 -4 -31.9171 -158.716 -1 52 982 -31.9171 -158.716 52 982 -32.0949 -158.527 TC 30 9 150
2003359S15177 2004 107 SP MM HETA 2004-01-08 12:00:00 MX -32.3500 201.600 50 984 wellington main 2168 2164 O_______O___O_ jtwc_sh SH072004 -32.5000 -158.200 EX 30 1000 -4 -32.2000 -158.600 -1 50 984 -32.2000 -158.600 50 984 -32.5000 -158.200 TC 30 8 154
2003359S15177 2004 107 SP MM HETA 2004-01-08 15:00:00 MX -32.6799 201.766 main 2169 2161 P______IP___P_ SH072004 -32.8799 -157.927 EX 35 997 -4 -32.4799 -158.540 -1 50 984 -32.4799 -158.540 50 984 -32.8799 -157.927 TC 35 6 161
2003359S15177 2004 107 SP MM HETA 2004-01-08 18:00:00 MX -32.9500 201.850 50 985 wellington main 2161 2157 O_______O___O_ jtwc_sh SH072004 -33.2000 -157.700 EX 40 994 -4 -32.7000 -158.600 -1 50 985 -32.7000 -158.600 50 985 -33.2000 -157.700 TC 40 5 171
2003359S15177 2004 107 SP MM HETA 2004-01-08 21:00:00 MX -33.1725 201.861 main 2158 2145 P______IP___P_ SH072004 -33.4649 -157.492 EX 37 995 -4 -32.8801 -158.785 -1 50 985 -32.8801 -158.785 50 985 -33.4649 -157.492 TC 37 4 0
2003359S15177 2004 107 SP MM HETA 2004-01-09 00:00:00 MX -33.3500 201.850 50 986 wellington main 2154 2147 O_______O___O_ jtwc_sh SH072004 -33.7000 -157.300 EX 35 997 -4 -33.0000 -159.000 -1 50 986 -33.0000 -159.000 50 986 -33.7000 -157.300 TC 35 3 0
2003359S15177 2004 107 SP MM HETA 2004-01-09 03:00:00 MX -33.5037 201.893 main 2147 2134 P______IP___P_ SH072004 -33.9424 -157.107 EX 32 998 -4 -33.0649 -159.108 -1 50 986 -33.0649 -159.108 50 986 -33.9424 -157.107 TC 32 2 193
2003359S15177 2004 107 SP MM HETA 2004-01-09 06:00:00 MX -33.5714 201.786 50 986 wellington main 2134 2117 O_______O___O_ jtwc_sh SH072004 -34.2000 -156.900 EX 30 1000 -4 -33.1000 -159.200 -1 50 986 -33.1000 -159.200 50 986 -34.2000 -156.900 TC 30 3 252
2003359S15177 2004 107 SP MM HETA 2004-01-09 09:00:00 MX -33.5967 201.551 main 2117 2082 P______IP___P_ SH072004 -34.4901 -156.660 EX 30 1000 -4 -33.1500 -159.343 -1 47 986 -33.1500 -159.343 47 986 -34.4901 -156.660 TC 30 6 275
2003359S15177 2004 107 SP MM HETA 2004-01-09 12:00:00 MX -33.5200 201.120 45 987 wellington main 2077 2023 O_______O___O_ jtwc_sh SH072004 -34.8000 -156.400 EX 30 1000 -4 -33.2000 -159.500 -1 45 987 -33.2000 -159.500 45 987 -34.8000 -156.400 TC 30 10 289
2003359S15177 2004 107 SP MM HETA 2004-01-09 15:00:00 NR -33.2499 200.372 main 2027 2006 _______IP_____ SH072004 EX -4 -33.2499 -159.628 -1 42 988 -33.2499 -159.628 42 988 TC 8 286
2003359S15177 2004 107 SP MM HETA 2004-01-09 18:00:00 NR -33.3000 200.200 40 990 wellington main 2006 1989 ________O_____ -1 -33.3000 -159.800 -1 40 990 -33.3000 -159.800 40 990 4 254
2003359S15177 2004 107 SP MM HETA 2004-01-09 21:00:00 NR -33.3497 199.960 main 1989 1950 _______IP_____ -1 -33.3497 -160.040 -1 37 991 -33.3497 -160.040 37 991 5 259
2003359S15177 2004 107 SP MM HETA 2004-01-10 00:00:00 NR -33.4000 199.600 35 993 wellington main 1950 1920 ________O_____ -1 -33.4000 -160.400 -1 35 993 -33.4000 -160.400 35 993 6 258
2003359S15177 2004 107 SP MM HETA 2004-01-10 03:00:00 NR -33.4759 199.268 main 1920 1859 _______IP_____ -1 -33.4759 -160.732 -1 35 993 -33.4759 -160.732 35 993 9 264
2003359S15177 2004 107 SP MM HETA 2004-01-10 06:00:00 NR -33.5000 198.500 35 994 wellington main 1851 1712 ________O_____ -1 -33.5000 -161.500 -1 35 994 -33.5000 -161.500 35 994 21 271
2003359S15177 2004 107 SP MM HETA 2004-01-10 09:00:00 NR -33.4560 196.780 main 1703 1570 _______IP_____ -1 -33.4560 -163.220 -1 35 994 -33.4560 -163.220 35 994 29 276
2003359S15177 2004 107 SP MM HETA 2004-01-10 12:00:00 NR -33.2000 195.000 35 995 wellington main 1562 1504 ________O_____ -1 -33.2000 -165.000 -1 35 995 -33.2000 -165.000 35 995 24 289
2003359S15177 2004 107 SP MM HETA 2004-01-10 15:00:00 NR -32.6716 194.025 main 1500 1490 _______IP_____ -1 -32.6716 -165.975 -1 35 995 -32.6716 -165.975 35 995 17 314
2003359S15177 2004 107 SP MM HETA 2004-01-10 18:00:00 NR -32.0000 193.500 35 995 wellington main 1495 1492 ________O_____ -1 -32.0000 -166.500 -1 35 995 -32.0000 -166.500 35 995 16 332
2003359S15177 2004 107 SP MM HETA 2004-01-10 21:00:00 NR -31.2668 193.154 main 1511 1509 _______IP_____ -1 -31.2668 -166.846 -1 35 995 -31.2668 -166.846 35 995 14 342
2003359S15177 2004 107 SP MM HETA 2004-01-11 00:00:00 NR -30.7000 193.000 35 995 wellington main 1532 1530 ________O_____ -1 -30.7000 -167.000 -1 35 995 -30.7000 -167.000 35 995 7 341
2003359S15177 2004 107 SP MM HETA 2004-01-11 03:00:00 NR -30.5599 192.878 main 1530 1522 _______IP_____ -1 -30.5599 -167.122 -1 35 995 -30.5599 -167.122 35 995 2 300
2003359S15177 2004 107 SP MM HETA 2004-01-11 06:00:00 NR -30.6000 192.800 35 995 wellington main 1522 1514 ________O_____ -1 -30.6000 -167.200 -1 35 995 -30.6000 -167.200 35 995 2 276
2003359S15177 2004 107 SP MM HETA 2004-01-11 09:00:00 NR -30.5425 192.692 main 1521 1513 _______IP_____ -1 -30.5425 -167.308 -1 32 995 -30.5425 -167.308 32 995 2 300
2003359S15177 2004 107 SP MM HETA 2004-01-11 12:00:00 NR -30.5000 192.600 30 996 wellington main 1513 1505 ________O_____ -1 -30.5000 -167.400 -1 30 996 -30.5000 -167.400 30 996 1 288
2003359S15177 2004 107 SP MM HETA 2004-01-11 15:00:00 NR -30.5000 192.543 main 1505 1505 _______IP_____ -1 -30.5000 -167.457 -1 30 996 -30.5000 -167.457 30 996 1 270
2003359S15177 2004 107 SP MM HETA 2004-01-11 18:00:00 NR -30.5000 192.500 30 997 wellington main 1505 1505 ________O_____ -1 -30.5000 -167.500 -1 30 997 -30.5000 -167.500 30 997 1 295
2003359S15177 2004 107 SP MM HETA 2004-01-11 21:00:00 NR -30.4625 192.452 main 1505 1498 _______IP_____ -1 -30.4625 -167.548 -1 30 998 -30.4625 -167.548 30 998 1 320
2003359S15177 2004 107 SP MM HETA 2004-01-12 00:00:00 NR -30.4000 192.400 30 999 wellington main 1504 ________O_____ -1 -30.4000 -167.600 -1 30 999 -30.4000 -167.600 30 999 2 336

デジタル台風データ・検索

IBTrACS Databaseについて

本データベースは、米国NOAAが公開する1842年以降の世界の熱帯低気圧のベストトラックデータアーカイブInternational Best Track Archive for Climate Stewardship (IBTrACS)を、ウェブで閲覧しやすい形式に変換したものです。

最終更新日:2021-10-25